createdAt,value
2022-10-30T00:02:21.385Z,48.13
2022-10-30T00:05:28.884Z,43.20
2022-10-30T00:08:35.478Z,43.13
2022-10-30T00:11:40.718Z,41.00
2022-10-30T00:14:43.702Z,47.92
2022-10-30T00:17:50.508Z,42.67
2022-10-30T00:20:53.094Z,46.22
2022-10-30T00:23:57.283Z,39.78
2022-10-30T00:27:04.083Z,44.47
2022-10-30T00:30:09.765Z,43.40
2022-10-30T00:33:14.787Z,43.55
2022-10-30T00:36:20.532Z,41.30
2022-10-30T00:39:23.193Z,45.53
2022-10-30T00:42:31.931Z,50.20
2022-10-30T00:45:35.963Z,39.80
2022-10-30T00:48:42.823Z,48.40
2022-10-30T00:51:54.452Z,39.25
2022-10-30T00:55:14.327Z,41.30
2022-10-30T00:58:24.695Z,40.75
2022-10-30T01:01:38.664Z,38.78
2022-10-30T01:04:43.546Z,39.35
2022-10-30T01:07:48.543Z,36.80
2022-10-30T01:10:51.349Z,37.65
2022-10-30T01:13:59.811Z,39.60
2022-10-30T01:17:21.550Z,37.53
2022-10-30T01:21:01.061Z,37.17
2022-10-30T01:24:33.199Z,35.35
2022-10-30T01:27:56.070Z,39.83
2022-10-30T01:31:02.103Z,33.80
2022-10-30T01:34:18.902Z,40.15
2022-10-30T01:37:38.219Z,31.10
2022-10-30T01:40:50.583Z,36.85
2022-10-30T01:43:57.087Z,34.55
2022-10-30T01:47:22.773Z,31.30
2022-10-30T01:50:31.697Z,32.55
2022-10-30T01:53:56.807Z,33.28
2022-10-30T01:57:14.799Z,42.65
2022-10-30T02:00:43.748Z,27.83
2022-10-30T02:04:06.932Z,28.58
2022-10-30T02:07:11.792Z,31.67
2022-10-30T02:10:17.781Z,30.70
2022-10-30T02:13:25.894Z,28.85
2022-10-30T02:16:34.674Z,31.55
2022-10-30T02:19:38.428Z,39.25
2022-10-30T02:22:42.993Z,32.10
2022-10-30T02:25:47.113Z,29.85
2022-10-30T02:29:14.679Z,29.92
2022-10-30T02:32:20.770Z,29.35
2022-10-30T02:35:26.048Z,29.37
2022-10-30T02:38:28.729Z,27.92
2022-10-30T02:41:34.966Z,33.95
2022-10-30T02:44:40.061Z,24.35
2022-10-30T02:47:43.098Z,34.38
2022-10-30T02:50:49.006Z,33.30
2022-10-30T02:53:51.642Z,30.30
2022-10-30T02:56:58.277Z,26.52
2022-10-30T03:00:01.783Z,30.65
2022-10-30T03:03:08.362Z,25.55
2022-10-30T03:06:20.094Z,22.42
2022-10-30T03:09:23.702Z,23.75
2022-10-30T03:12:30.348Z,28.67
2022-10-30T03:15:34.628Z,25.90
2022-10-30T03:18:40.063Z,23.30
2022-10-30T03:21:44.977Z,20.40
2022-10-30T03:24:49.018Z,24.02
2022-10-30T03:27:52.779Z,23.90
2022-10-30T03:31:19.822Z,23.87
2022-10-30T03:34:26.662Z,20.45
2022-10-30T03:37:59.009Z,22.33
2022-10-30T03:41:19.394Z,23.85
2022-10-30T03:44:23.716Z,25.95
2022-10-30T03:47:26.285Z,24.58
2022-10-30T03:50:32.699Z,24.48
2022-10-30T03:53:36.052Z,20.42
2022-10-30T03:56:41.438Z,21.95
2022-10-30T03:59:49.438Z,26.15
2022-10-30T04:02:54.737Z,18.55
2022-10-30T04:06:14.454Z,21.55
2022-10-30T04:09:20.310Z,21.75
2022-10-30T04:12:26.238Z,22.37
2022-10-30T04:15:28.901Z,19.65
2022-10-30T04:18:34.796Z,21.85
2022-10-30T04:21:38.388Z,18.55
2022-10-30T04:25:08.005Z,19.98
2022-10-30T04:28:12.444Z,18.02
2022-10-30T04:31:17.679Z,21.12
2022-10-30T04:34:20.713Z,17.37
2022-10-30T04:37:23.989Z,14.75
2022-10-30T04:40:33.226Z,17.58
2022-10-30T04:43:36.389Z,12.75
2022-10-30T04:46:39.171Z,16.45
2022-10-30T04:49:43.916Z,16.08
2022-10-30T04:52:47.500Z,16.95
2022-10-30T04:55:57.531Z,17.20
2022-10-30T04:59:03.251Z,18.83
2022-10-30T05:02:06.623Z,19.58
2022-10-30T05:05:10.602Z,16.17
2022-10-30T05:08:18.771Z,15.43
2022-10-30T05:11:22.227Z,18.48
2022-10-30T05:14:29.403Z,21.15
2022-10-30T05:17:34.041Z,16.80
2022-10-30T05:20:40.852Z,18.35
2022-10-30T05:23:44.862Z,16.45
2022-10-30T05:26:50.675Z,17.30
2022-10-30T05:29:57.063Z,15.75
2022-10-30T05:33:08.547Z,17.67
2022-10-30T05:36:11.203Z,15.65
2022-10-30T05:39:14.888Z,16.37
2022-10-30T05:42:18.500Z,14.77
2022-10-30T05:45:21.430Z,13.62
2022-10-30T05:48:26.857Z,13.70
2022-10-30T05:51:29.989Z,16.67
2022-10-30T05:54:34.706Z,19.25
2022-10-30T05:57:39.008Z,16.83
2022-10-30T06:00:44.488Z,13.82
2022-10-30T06:03:49.032Z,16.35
2022-10-30T06:06:53.756Z,17.17
2022-10-30T06:10:01.729Z,15.48
2022-10-30T06:13:14.154Z,14.48
2022-10-30T06:16:17.739Z,17.27
2022-10-30T06:19:22.153Z,20.77
2022-10-30T06:22:27.299Z,16.48
2022-10-30T06:25:37.750Z,13.80
2022-10-30T06:28:45.228Z,13.10
2022-10-30T06:31:50.077Z,16.80
2022-10-30T06:34:57.131Z,16.40
2022-10-30T06:38:00.868Z,13.70
2022-10-30T06:41:04.869Z,16.85
2022-10-30T06:44:11.254Z,16.92
2022-10-30T06:47:15.993Z,20.20
2022-10-30T06:50:20.714Z,15.38
2022-10-30T06:53:24.254Z,18.23
2022-10-30T06:56:27.371Z,18.10
2022-10-30T06:59:33.651Z,19.37
2022-10-30T07:02:36.596Z,18.70
2022-10-30T07:05:40.158Z,15.35
2022-10-30T07:08:43.277Z,17.17
2022-10-30T07:11:54.394Z,16.60
2022-10-30T07:15:07.982Z,14.00
2022-10-30T07:18:12.095Z,19.50
2022-10-30T07:21:41.315Z,19.15
2022-10-30T07:25:08.776Z,16.30
2022-10-30T07:28:20.209Z,15.68
2022-10-30T07:31:35.212Z,18.10
2022-10-30T07:35:14.058Z,16.55
2022-10-30T07:38:22.941Z,17.77
2022-10-30T07:41:26.298Z,19.30
2022-10-30T07:44:29.122Z,18.42
2022-10-30T07:47:38.953Z,17.75
2022-10-30T07:50:46.186Z,17.98
2022-10-30T07:53:48.929Z,17.45
2022-10-30T07:56:52.392Z,14.30
2022-10-30T08:00:04.068Z,17.50
2022-10-30T08:03:18.179Z,18.33
2022-10-30T08:06:26.369Z,12.82
2022-10-30T08:09:33.690Z,17.52
2022-10-30T08:12:41.624Z,17.35
2022-10-30T08:15:49.743Z,15.80
2022-10-30T08:18:55.241Z,20.77
2022-10-30T08:22:00.004Z,18.23
2022-10-30T08:25:05.774Z,17.35
2022-10-30T08:28:08.550Z,18.15
2022-10-30T08:31:11.883Z,15.80
2022-10-30T08:34:21.965Z,19.80
2022-10-30T08:37:28.477Z,15.48
2022-10-30T08:40:32.572Z,17.15
2022-10-30T08:43:36.108Z,17.45
2022-10-30T08:46:41.735Z,18.25
2022-10-30T08:49:50.048Z,17.00
2022-10-30T08:53:12.518Z,17.12
2022-10-30T08:56:16.556Z,18.83
2022-10-30T08:59:22.386Z,19.83
2022-10-30T09:02:29.138Z,15.55
2022-10-30T09:05:54.606Z,17.55
2022-10-30T09:09:08.095Z,19.67
2022-10-30T09:15:16.382Z,17.20
2022-10-30T09:18:22.086Z,20.88
2022-10-30T09:21:24.914Z,15.82
2022-10-30T09:24:31.587Z,16.45
2022-10-30T09:27:42.290Z,19.40
2022-10-30T09:30:45.606Z,24.00
2022-10-30T09:33:49.308Z,18.48
2022-10-30T09:36:57.881Z,15.57
2022-10-30T09:40:06.647Z,16.58
2022-10-30T09:43:21.551Z,18.05
2022-10-30T09:46:34.148Z,19.12
2022-10-30T09:49:49.170Z,19.95
2022-10-30T09:53:26.078Z,15.88
2022-10-30T09:56:34.638Z,17.55
2022-10-30T09:59:49.005Z,17.10
2022-10-30T10:02:53.413Z,18.50
2022-10-30T10:06:03.505Z,16.20
2022-10-30T10:09:19.019Z,19.85
2022-10-30T10:12:31.612Z,17.10
2022-10-30T10:15:45.483Z,21.45
2022-10-30T10:19:14.054Z,15.52
2022-10-30T10:22:27.210Z,19.50
2022-10-30T10:25:34.320Z,19.17
2022-10-30T10:28:55.582Z,19.58
2022-10-30T10:32:17.358Z,15.73
2022-10-30T10:35:23.100Z,20.08
2022-10-30T10:41:53.848Z,15.88
2022-10-30T10:45:23.617Z,16.17
2022-10-30T10:48:53.902Z,17.33
2022-10-30T10:52:04.243Z,19.80
2022-10-30T10:55:16.062Z,20.60
2022-10-30T10:58:30.641Z,17.73
2022-10-30T11:01:59.475Z,16.87
2022-10-30T11:05:37.500Z,18.35
2022-10-30T11:08:46.540Z,17.55
2022-10-30T11:11:52.584Z,16.45
2022-10-30T11:14:58.672Z,18.58
2022-10-30T11:18:48.043Z,21.70
2022-10-30T11:21:58.095Z,17.37
2022-10-30T11:25:38.065Z,17.30
2022-10-30T11:28:47.907Z,20.25
2022-10-30T11:32:03.985Z,15.77
2022-10-30T11:35:10.990Z,20.25
2022-10-30T11:38:20.658Z,17.80
2022-10-30T11:41:25.549Z,18.00
2022-10-30T11:44:36.203Z,17.98
2022-10-30T11:47:42.322Z,17.10
2022-10-30T11:50:52.051Z,22.35
2022-10-30T11:53:55.739Z,17.73
2022-10-30T11:56:59.057Z,16.50
2022-10-30T12:00:08.640Z,18.00
2022-10-30T12:03:39.739Z,19.30
2022-10-30T12:07:24.167Z,17.90
2022-10-30T12:10:30.272Z,19.77
2022-10-30T12:13:39.915Z,17.63
2022-10-30T12:16:46.959Z,19.92
2022-10-30T12:19:55.058Z,20.08
2022-10-30T12:22:58.328Z,18.98
2022-10-30T12:26:10.570Z,19.27
2022-10-30T12:29:19.153Z,19.52
2022-10-30T12:32:41.792Z,17.98
2022-10-30T12:35:59.292Z,18.87
2022-10-30T12:39:27.294Z,18.40
2022-10-30T12:42:36.983Z,16.70
2022-10-30T12:46:33.281Z,20.12
2022-10-30T12:50:06.801Z,19.73
2022-10-30T12:53:42.519Z,18.83
2022-10-30T12:56:57.127Z,15.63
2022-10-30T13:00:17.870Z,19.30
2022-10-30T13:03:24.582Z,18.23
2022-10-30T13:06:32.060Z,21.40
2022-10-30T13:10:00.874Z,24.27
2022-10-30T13:13:20.146Z,17.92
2022-10-30T13:16:27.303Z,18.10
2022-10-30T13:19:41.102Z,17.35
2022-10-30T13:22:57.452Z,19.20
2022-10-30T13:29:25.436Z,21.58
2022-10-30T13:32:40.782Z,17.60
2022-10-30T13:36:04.105Z,15.98
2022-10-30T13:40:00.402Z,20.75
2022-10-30T13:43:17.824Z,20.10
2022-10-30T13:46:30.412Z,19.20
2022-10-30T13:50:04.211Z,18.08
2022-10-30T13:53:17.628Z,20.48
2022-10-30T13:56:22.895Z,18.08
2022-10-30T14:00:15.602Z,20.25
2022-10-30T14:03:31.158Z,19.58
2022-10-30T14:06:40.052Z,17.02
2022-10-30T14:10:16.037Z,19.15
2022-10-30T14:13:27.005Z,22.67
2022-10-30T14:16:33.944Z,19.90
2022-10-30T14:20:13.772Z,16.43
2022-10-30T14:23:36.449Z,16.77
2022-10-30T14:26:51.722Z,19.30
2022-10-30T14:30:19.793Z,18.25
2022-10-30T14:33:43.827Z,22.05
2022-10-30T14:36:50.561Z,20.90
2022-10-30T14:43:31.413Z,19.40
2022-10-30T14:46:43.254Z,19.62
2022-10-30T14:49:56.335Z,17.05
2022-10-30T14:53:11.685Z,17.92
2022-10-30T15:03:23.993Z,17.62
2022-10-30T15:06:42.658Z,19.17
2022-10-30T15:10:31.582Z,17.87
2022-10-30T15:14:05.319Z,21.42
2022-10-30T15:17:41.167Z,21.10
2022-10-30T15:20:50.164Z,17.92
2022-10-30T15:23:57.086Z,16.73
2022-10-30T15:27:22.684Z,20.47
2022-10-30T15:30:27.610Z,17.83
2022-10-30T15:33:35.512Z,20.55
2022-10-30T15:37:00.164Z,17.95
2022-10-30T15:40:23.961Z,23.95
2022-10-30T15:43:36.700Z,16.83
2022-10-30T15:46:40.030Z,20.58
2022-10-30T15:49:54.490Z,17.08
2022-10-30T15:52:58.087Z,19.87
2022-10-30T15:57:08.179Z,16.62
2022-10-30T16:00:20.556Z,16.75
2022-10-30T16:03:24.079Z,17.42
2022-10-30T16:07:24.528Z,22.90
2022-10-30T16:10:35.906Z,14.15
2022-10-30T16:13:40.856Z,20.25
2022-10-30T16:16:51.230Z,21.73
2022-10-30T16:23:06.436Z,19.10
2022-10-30T16:26:38.049Z,23.05
2022-10-30T16:30:00.317Z,23.90
2022-10-30T16:33:08.687Z,18.55
2022-10-30T16:36:18.710Z,20.75
2022-10-30T16:39:24.184Z,22.58
2022-10-30T16:43:03.285Z,19.02
2022-10-30T16:46:16.607Z,22.83
2022-10-30T16:49:29.271Z,19.67
2022-10-30T16:52:37.740Z,19.08
2022-10-30T16:55:46.156Z,23.50
2022-10-30T16:59:18.964Z,23.38
2022-10-30T17:02:46.800Z,20.75
2022-10-30T17:06:03.410Z,24.67
2022-10-30T17:09:28.857Z,25.40
2022-10-30T17:12:35.262Z,30.23
2022-10-30T17:15:41.726Z,21.55
2022-10-30T17:18:44.600Z,19.62
2022-10-30T17:21:52.114Z,21.60
2022-10-30T17:25:20.106Z,18.23
2022-10-30T17:28:35.631Z,20.92
2022-10-30T17:31:48.144Z,19.45
2022-10-30T17:35:01.132Z,21.55
2022-10-30T17:38:08.171Z,20.90
2022-10-30T17:41:22.050Z,17.80
2022-10-30T17:44:37.965Z,18.95
2022-10-30T17:48:29.872Z,19.77
2022-10-30T17:51:38.581Z,17.48
2022-10-30T17:54:45.449Z,20.12
2022-10-30T17:58:15.709Z,18.60
2022-10-30T18:01:25.436Z,20.83
2022-10-30T18:04:55.193Z,20.95
2022-10-30T18:08:23.418Z,19.40
2022-10-30T18:11:29.751Z,21.50
2022-10-30T18:14:40.661Z,21.95
2022-10-30T18:17:44.658Z,22.20
2022-10-30T18:21:14.452Z,19.60
2022-10-30T18:24:41.911Z,19.48
2022-10-30T18:28:06.525Z,20.67
2022-10-30T18:31:37.062Z,23.92
2022-10-30T18:34:43.826Z,24.60
2022-10-30T18:38:24.234Z,20.90
2022-10-30T18:41:33.758Z,22.87
2022-10-30T18:45:19.065Z,23.35
2022-10-30T18:48:43.573Z,26.03
2022-10-30T18:51:50.242Z,23.15
2022-10-30T18:54:57.349Z,30.30
2022-10-30T18:58:03.273Z,24.65
2022-10-30T19:01:12.594Z,20.73
2022-10-30T19:04:22.116Z,26.10
2022-10-30T19:07:35.781Z,27.50
2022-10-30T19:14:14.324Z,28.52
2022-10-30T19:17:18.103Z,26.33
2022-10-30T19:20:24.848Z,24.85
2022-10-30T19:23:37.034Z,25.05
2022-10-30T19:26:40.177Z,24.75
2022-10-30T19:29:43.334Z,24.05
2022-10-30T19:32:53.818Z,27.40
2022-10-30T19:36:05.088Z,28.92
2022-10-30T19:39:13.533Z,30.27
2022-10-30T19:42:21.047Z,22.25
2022-10-30T19:45:27.294Z,25.03
2022-10-30T19:52:06.830Z,24.70
2022-10-30T19:55:14.877Z,24.90
2022-10-30T19:58:37.713Z,21.27
2022-10-30T20:01:42.329Z,23.40
2022-10-30T20:04:48.903Z,23.10
2022-10-30T20:08:15.570Z,23.40
2022-10-30T20:11:24.830Z,22.92
2022-10-30T20:14:29.651Z,25.62
2022-10-30T20:17:34.187Z,24.65
2022-10-30T20:20:45.099Z,23.12
2022-10-30T20:23:51.141Z,20.80
2022-10-30T20:27:17.743Z,23.75
2022-10-30T20:30:22.952Z,24.75
2022-10-30T20:33:29.093Z,24.90
2022-10-30T20:36:54.968Z,27.33
2022-10-30T20:40:01.829Z,29.90
2022-10-30T20:43:10.192Z,23.52
2022-10-30T20:46:34.804Z,26.65
2022-10-30T20:49:42.468Z,24.33
2022-10-30T20:52:45.571Z,22.70
2022-10-30T20:55:48.885Z,24.67
2022-10-30T20:58:58.727Z,24.08
2022-10-30T21:02:04.127Z,26.33
2022-10-30T21:05:30.609Z,23.60
2022-10-30T21:08:40.997Z,26.98
2022-10-30T21:12:10.291Z,28.77
2022-10-30T21:15:13.955Z,31.83
2022-10-30T21:19:02.066Z,25.90
2022-10-30T21:22:07.161Z,25.73
2022-10-30T21:25:12.949Z,33.50
2022-10-30T21:31:28.923Z,26.05
2022-10-30T21:34:54.039Z,25.02
2022-10-30T21:37:59.131Z,30.62
2022-10-30T21:41:03.189Z,29.40
2022-10-30T21:44:09.756Z,27.27
2022-10-30T21:47:40.990Z,28.77
2022-10-30T21:51:16.980Z,27.17
2022-10-30T21:54:28.272Z,28.87
2022-10-30T21:57:40.135Z,26.37
2022-10-30T22:00:47.276Z,26.92
2022-10-30T22:04:19.906Z,25.95
2022-10-30T22:07:44.579Z,28.17
2022-10-30T22:10:57.073Z,28.45
2022-10-30T22:14:20.689Z,31.77
2022-10-30T22:17:44.158Z,36.50
2022-10-30T22:21:16.202Z,31.65
2022-10-30T22:24:39.999Z,38.60
2022-10-30T22:27:48.901Z,33.80
2022-10-30T22:31:30.283Z,33.55
2022-10-30T22:34:37.078Z,32.30
2022-10-30T22:38:09.560Z,40.50
2022-10-30T22:41:19.430Z,30.02
2022-10-30T22:44:23.408Z,36.50
2022-10-30T22:47:28.618Z,31.75
2022-10-30T22:50:32.737Z,33.63
2022-10-30T22:53:39.646Z,32.50
2022-10-30T22:56:43.709Z,33.08
2022-10-30T22:59:50.463Z,34.45
2022-10-30T23:13:41.478Z,33.28
2022-10-30T23:17:05.250Z,28.73
2022-10-30T23:20:11.099Z,28.33
2022-10-30T23:23:22.581Z,31.62
2022-10-30T23:26:43.635Z,24.37
2022-10-30T23:34:21.413Z,30.02
2022-10-30T23:37:24.597Z,24.87
2022-10-30T23:40:27.408Z,30.25
2022-10-30T23:43:40.679Z,33.45
2022-10-30T23:46:51.623Z,26.10
2022-10-30T23:49:58.415Z,30.73
2022-10-30T23:53:08.209Z,27.15
2022-10-30T23:56:14.432Z,26.92
2022-10-30T23:59:19.270Z,26.33
